sensor_id;sensor_type;location;lat;lon;timestamp;P1;durP1;ratioP1;P2;durP2;ratioP2
5303;SDS011;2674;49.722;10.892;2023-07-20T00:01:13;5.87;;;4.30;;
5303;SDS011;2674;49.722;10.892;2023-07-20T00:03:39;5.63;;;3.93;;
5303;SDS011;2674;49.722;10.892;2023-07-20T00:06:06;3.97;;;3.40;;
5303;SDS011;2674;49.722;10.892;2023-07-20T00:08:31;7.37;;;4.20;;
5303;SDS011;2674;49.722;10.892;2023-07-20T00:10:57;6.33;;;4.13;;
5303;SDS011;2674;49.722;10.892;2023-07-20T00:13:23;5.60;;;3.90;;
5303;SDS011;2674;49.722;10.892;2023-07-20T00:15:49;5.57;;;4.50;;
5303;SDS011;2674;49.722;10.892;2023-07-20T00:18:16;7.97;;;4.17;;
5303;SDS011;2674;49.722;10.892;2023-07-20T00:20:42;9.27;;;3.80;;
5303;SDS011;2674;49.722;10.892;2023-07-20T00:23:08;6.43;;;4.07;;
5303;SDS011;2674;49.722;10.892;2023-07-20T00:25:34;4.97;;;4.40;;
5303;SDS011;2674;49.722;10.892;2023-07-20T00:28:00;4.70;;;3.93;;
5303;SDS011;2674;49.722;10.892;2023-07-20T00:30:26;4.03;;;3.63;;
5303;SDS011;2674;49.722;10.892;2023-07-20T00:32:52;5.70;;;4.53;;
5303;SDS011;2674;49.722;10.892;2023-07-20T00:35:18;7.77;;;3.70;;
5303;SDS011;2674;49.722;10.892;2023-07-20T00:37:44;7.30;;;4.27;;
5303;SDS011;2674;49.722;10.892;2023-07-20T00:40:09;5.70;;;3.70;;
5303;SDS011;2674;49.722;10.892;2023-07-20T00:42:35;5.07;;;4.50;;
5303;SDS011;2674;49.722;10.892;2023-07-20T00:45:01;6.10;;;4.30;;
5303;SDS011;2674;49.722;10.892;2023-07-20T00:47:27;9.20;;;4.30;;
5303;SDS011;2674;49.722;10.892;2023-07-20T00:49:53;8.23;;;4.77;;
5303;SDS011;2674;49.722;10.892;2023-07-20T00:52:23;7.03;;;4.10;;
5303;SDS011;2674;49.722;10.892;2023-07-20T00:54:50;4.87;;;4.37;;
5303;SDS011;2674;49.722;10.892;2023-07-20T00:57:17;6.70;;;4.73;;
5303;SDS011;2674;49.722;10.892;2023-07-20T00:59:44;6.63;;;4.13;;
5303;SDS011;2674;49.722;10.892;2023-07-20T01:02:10;6.00;;;4.60;;
5303;SDS011;2674;49.722;10.892;2023-07-20T01:04:36;6.07;;;4.00;;
5303;SDS011;2674;49.722;10.892;2023-07-20T01:07:17;5.33;;;4.73;;
5303;SDS011;2674;49.722;10.892;2023-07-20T01:10:05;10.20;;;3.93;;
5303;SDS011;2674;49.722;10.892;2023-07-20T01:15:08;8.57;;;4.73;;
5303;SDS011;2674;49.722;10.892;2023-07-20T01:17:35;5.33;;;4.10;;
5303;SDS011;2674;49.722;10.892;2023-07-20T01:20:01;6.23;;;4.40;;
5303;SDS011;2674;49.722;10.892;2023-07-20T01:25:34;8.33;;;4.40;;
5303;SDS011;2674;49.722;10.892;2023-07-20T01:33:50;7.13;;;4.20;;
5303;SDS011;2674;49.722;10.892;2023-07-20T01:36:19;6.30;;;4.10;;
5303;SDS011;2674;49.722;10.892;2023-07-20T01:38:46;5.73;;;4.13;;
5303;SDS011;2674;49.722;10.892;2023-07-20T01:41:13;6.73;;;4.33;;
5303;SDS011;2674;49.722;10.892;2023-07-20T01:43:40;6.80;;;4.93;;
5303;SDS011;2674;49.722;10.892;2023-07-20T01:46:05;5.03;;;4.47;;
5303;SDS011;2674;49.722;10.892;2023-07-20T01:48:31;6.10;;;4.93;;
5303;SDS011;2674;49.722;10.892;2023-07-20T01:50:57;5.97;;;5.30;;
5303;SDS011;2674;49.722;10.892;2023-07-20T01:53:23;6.73;;;4.67;;
5303;SDS011;2674;49.722;10.892;2023-07-20T01:55:49;5.20;;;4.60;;
5303;SDS011;2674;49.722;10.892;2023-07-20T01:58:17;6.70;;;4.90;;
5303;SDS011;2674;49.722;10.892;2023-07-20T02:00:43;11.07;;;5.53;;
5303;SDS011;2674;49.722;10.892;2023-07-20T02:03:08;11.37;;;5.97;;
5303;SDS011;2674;49.722;10.892;2023-07-20T02:05:34;5.53;;;4.10;;
5303;SDS011;2674;49.722;10.892;2023-07-20T02:08:00;8.87;;;5.33;;
5303;SDS011;2674;49.722;10.892;2023-07-20T02:10:26;5.13;;;4.60;;
5303;SDS011;2674;49.722;10.892;2023-07-20T02:12:52;7.17;;;4.73;;
5303;SDS011;2674;49.722;10.892;2023-07-20T02:15:17;10.20;;;4.63;;
5303;SDS011;2674;49.722;10.892;2023-07-20T02:17:44;7.93;;;4.70;;
5303;SDS011;2674;49.722;10.892;2023-07-20T02:20:10;8.20;;;4.73;;
5303;SDS011;2674;49.722;10.892;2023-07-20T02:22:36;6.80;;;5.10;;
5303;SDS011;2674;49.722;10.892;2023-07-20T02:25:03;8.07;;;4.97;;
5303;SDS011;2674;49.722;10.892;2023-07-20T02:27:30;7.87;;;4.67;;
5303;SDS011;2674;49.722;10.892;2023-07-20T02:29:56;8.60;;;5.70;;
5303;SDS011;2674;49.722;10.892;2023-07-20T02:32:22;9.47;;;5.20;;
5303;SDS011;2674;49.722;10.892;2023-07-20T02:34:47;6.47;;;4.43;;
5303;SDS011;2674;49.722;10.892;2023-07-20T02:37:13;11.53;;;5.30;;
5303;SDS011;2674;49.722;10.892;2023-07-20T02:39:39;5.83;;;5.20;;
5303;SDS011;2674;49.722;10.892;2023-07-20T02:42:05;6.60;;;4.80;;
5303;SDS011;2674;49.722;10.892;2023-07-20T02:44:31;8.70;;;5.53;;
5303;SDS011;2674;49.722;10.892;2023-07-20T02:46:57;9.17;;;5.43;;
5303;SDS011;2674;49.722;10.892;2023-07-20T02:49:23;6.33;;;4.47;;
5303;SDS011;2674;49.722;10.892;2023-07-20T02:51:48;8.07;;;5.23;;
5303;SDS011;2674;49.722;10.892;2023-07-20T02:54:14;7.90;;;4.50;;
5303;SDS011;2674;49.722;10.892;2023-07-20T02:56:43;7.00;;;4.80;;
5303;SDS011;2674;49.722;10.892;2023-07-20T02:59:09;6.50;;;4.60;;
5303;SDS011;2674;49.722;10.892;2023-07-20T03:01:35;9.67;;;4.90;;
5303;SDS011;2674;49.722;10.892;2023-07-20T03:04:02;7.40;;;5.27;;
5303;SDS011;2674;49.722;10.892;2023-07-20T03:06:29;5.57;;;5.07;;
5303;SDS011;2674;49.722;10.892;2023-07-20T03:08:55;10.37;;;5.40;;
5303;SDS011;2674;49.722;10.892;2023-07-20T03:11:21;10.57;;;5.23;;
5303;SDS011;2674;49.722;10.892;2023-07-20T03:13:47;8.10;;;4.80;;
5303;SDS011;2674;49.722;10.892;2023-07-20T03:16:15;9.80;;;4.90;;
5303;SDS011;2674;49.722;10.892;2023-07-20T03:18:44;14.97;;;5.57;;
5303;SDS011;2674;49.722;10.892;2023-07-20T03:21:10;6.20;;;4.73;;
5303;SDS011;2674;49.722;10.892;2023-07-20T03:23:37;6.87;;;4.70;;
5303;SDS011;2674;49.722;10.892;2023-07-20T03:26:03;8.43;;;5.27;;
5303;SDS011;2674;49.722;10.892;2023-07-20T03:28:29;7.57;;;5.00;;
5303;SDS011;2674;49.722;10.892;2023-07-20T03:30:58;8.57;;;5.27;;
5303;SDS011;2674;49.722;10.892;2023-07-20T03:33:28;8.23;;;5.17;;
5303;SDS011;2674;49.722;10.892;2023-07-20T03:35:55;12.20;;;5.50;;
5303;SDS011;2674;49.722;10.892;2023-07-20T03:38:25;12.33;;;5.90;;
5303;SDS011;2674;49.722;10.892;2023-07-20T03:40:53;9.90;;;4.93;;
5303;SDS011;2674;49.722;10.892;2023-07-20T03:43:24;10.97;;;5.33;;
5303;SDS011;2674;49.722;10.892;2023-07-20T03:45:51;8.20;;;4.90;;
5303;SDS011;2674;49.722;10.892;2023-07-20T03:48:21;8.20;;;5.17;;
5303;SDS011;2674;49.722;10.892;2023-07-20T03:50:48;11.40;;;5.23;;
5303;SDS011;2674;49.722;10.892;2023-07-20T03:53:15;6.13;;;5.07;;
5303;SDS011;2674;49.722;10.892;2023-07-20T03:55:44;6.07;;;5.00;;
5303;SDS011;2674;49.722;10.892;2023-07-20T03:58:11;8.00;;;4.60;;
5303;SDS011;2674;49.722;10.892;2023-07-20T04:00:38;8.03;;;5.13;;
5303;SDS011;2674;49.722;10.892;2023-07-20T04:03:04;4.73;;;4.13;;
5303;SDS011;2674;49.722;10.892;2023-07-20T04:05:30;6.20;;;4.87;;
5303;SDS011;2674;49.722;10.892;2023-07-20T04:07:58;9.10;;;5.07;;
5303;SDS011;2674;49.722;10.892;2023-07-20T04:10:24;7.93;;;4.77;;
5303;SDS011;2674;49.722;10.892;2023-07-20T04:12:49;9.00;;;5.77;;
5303;SDS011;2674;49.722;10.892;2023-07-20T04:15:15;7.27;;;5.47;;
5303;SDS011;2674;49.722;10.892;2023-07-20T04:17:41;6.23;;;4.53;;
5303;SDS011;2674;49.722;10.892;2023-07-20T04:20:07;4.87;;;4.37;;
5303;SDS011;2674;49.722;10.892;2023-07-20T04:22:34;6.63;;;5.00;;
5303;SDS011;2674;49.722;10.892;2023-07-20T04:24:59;5.50;;;5.00;;
5303;SDS011;2674;49.722;10.892;2023-07-20T04:27:28;8.40;;;5.20;;
5303;SDS011;2674;49.722;10.892;2023-07-20T04:29:54;7.70;;;4.80;;
5303;SDS011;2674;49.722;10.892;2023-07-20T04:32:21;9.37;;;4.50;;
5303;SDS011;2674;49.722;10.892;2023-07-20T04:34:47;7.97;;;5.60;;
5303;SDS011;2674;49.722;10.892;2023-07-20T04:37:13;7.97;;;5.57;;
5303;SDS011;2674;49.722;10.892;2023-07-20T04:39:38;8.20;;;5.67;;
5303;SDS011;2674;49.722;10.892;2023-07-20T04:42:04;8.27;;;5.17;;
5303;SDS011;2674;49.722;10.892;2023-07-20T04:44:30;7.00;;;4.90;;
5303;SDS011;2674;49.722;10.892;2023-07-20T04:46:56;7.33;;;5.30;;
5303;SDS011;2674;49.722;10.892;2023-07-20T04:49:22;7.30;;;5.23;;
5303;SDS011;2674;49.722;10.892;2023-07-20T04:51:47;9.17;;;4.77;;
5303;SDS011;2674;49.722;10.892;2023-07-20T04:54:13;6.53;;;4.93;;
5303;SDS011;2674;49.722;10.892;2023-07-20T04:56:39;11.07;;;5.13;;
5303;SDS011;2674;49.722;10.892;2023-07-20T04:59:05;9.40;;;5.40;;
5303;SDS011;2674;49.722;10.892;2023-07-20T05:01:31;5.53;;;4.70;;
5303;SDS011;2674;49.722;10.892;2023-07-20T05:03:57;11.03;;;5.53;;
5303;SDS011;2674;49.722;10.892;2023-07-20T05:06:23;9.43;;;4.60;;
5303;SDS011;2674;49.722;10.892;2023-07-20T05:08:48;14.83;;;5.57;;
5303;SDS011;2674;49.722;10.892;2023-07-20T05:11:14;9.30;;;5.23;;
5303;SDS011;2674;49.722;10.892;2023-07-20T05:13:40;15.13;;;4.73;;
5303;SDS011;2674;49.722;10.892;2023-07-20T05:16:06;7.33;;;4.93;;
5303;SDS011;2674;49.722;10.892;2023-07-20T05:18:32;8.07;;;4.10;;
5303;SDS011;2674;49.722;10.892;2023-07-20T05:20:58;6.93;;;4.70;;
5303;SDS011;2674;49.722;10.892;2023-07-20T05:23:24;7.03;;;5.17;;
5303;SDS011;2674;49.722;10.892;2023-07-20T05:25:57;10.57;;;4.73;;
5303;SDS011;2674;49.722;10.892;2023-07-20T05:28:24;8.17;;;4.10;;
5303;SDS011;2674;49.722;10.892;2023-07-20T05:30:51;7.90;;;4.10;;
5303;SDS011;2674;49.722;10.892;2023-07-20T05:33:17;9.53;;;5.50;;
5303;SDS011;2674;49.722;10.892;2023-07-20T05:35:44;6.63;;;3.77;;
5303;SDS011;2674;49.722;10.892;2023-07-20T05:38:10;5.90;;;3.50;;
5303;SDS011;2674;49.722;10.892;2023-07-20T05:40:45;8.17;;;4.10;;
5303;SDS011;2674;49.722;10.892;2023-07-20T05:43:12;6.30;;;4.40;;
5303;SDS011;2674;49.722;10.892;2023-07-20T05:45:41;5.77;;;4.90;;
5303;SDS011;2674;49.722;10.892;2023-07-20T05:48:08;9.63;;;4.13;;
5303;SDS011;2674;49.722;10.892;2023-07-20T05:50:36;8.67;;;3.87;;
5303;SDS011;2674;49.722;10.892;2023-07-20T05:53:03;8.00;;;4.20;;
5303;SDS011;2674;49.722;10.892;2023-07-20T05:55:29;8.00;;;3.80;;
5303;SDS011;2674;49.722;10.892;2023-07-20T05:57:54;14.90;;;4.60;;
5303;SDS011;2674;49.722;10.892;2023-07-20T06:00:21;6.67;;;3.67;;
5303;SDS011;2674;49.722;10.892;2023-07-20T06:02:51;5.37;;;3.53;;
5303;SDS011;2674;49.722;10.892;2023-07-20T06:05:18;6.03;;;3.27;;
5303;SDS011;2674;49.722;10.892;2023-07-20T06:07:46;12.60;;;3.43;;
5303;SDS011;2674;49.722;10.892;2023-07-20T06:10:12;10.90;;;3.50;;
5303;SDS011;2674;49.722;10.892;2023-07-20T06:12:37;9.40;;;3.40;;
5303;SDS011;2674;49.722;10.892;2023-07-20T06:15:04;6.93;;;3.27;;
5303;SDS011;2674;49.722;10.892;2023-07-20T06:17:30;4.43;;;2.90;;
5303;SDS011;2674;49.722;10.892;2023-07-20T06:19:56;4.03;;;2.90;;
5303;SDS011;2674;49.722;10.892;2023-07-20T06:22:22;5.53;;;2.93;;
5303;SDS011;2674;49.722;10.892;2023-07-20T06:24:48;4.37;;;3.40;;
5303;SDS011;2674;49.722;10.892;2023-07-20T06:27:14;6.10;;;3.80;;
5303;SDS011;2674;49.722;10.892;2023-07-20T06:29:39;12.43;;;3.90;;
5303;SDS011;2674;49.722;10.892;2023-07-20T06:32:05;5.60;;;3.30;;
5303;SDS011;2674;49.722;10.892;2023-07-20T06:34:32;6.73;;;4.00;;
5303;SDS011;2674;49.722;10.892;2023-07-20T06:37:02;4.77;;;3.40;;
5303;SDS011;2674;49.722;10.892;2023-07-20T06:39:29;9.23;;;3.80;;
5303;SDS011;2674;49.722;10.892;2023-07-20T06:41:55;9.40;;;3.70;;
5303;SDS011;2674;49.722;10.892;2023-07-20T06:44:21;11.53;;;3.30;;
5303;SDS011;2674;49.722;10.892;2023-07-20T06:46:47;6.33;;;3.63;;
5303;SDS011;2674;49.722;10.892;2023-07-20T06:49:23;6.50;;;3.37;;
5303;SDS011;2674;49.722;10.892;2023-07-20T06:51:51;3.47;;;2.90;;
5303;SDS011;2674;49.722;10.892;2023-07-20T06:54:17;3.67;;;3.33;;
5303;SDS011;2674;49.722;10.892;2023-07-20T06:56:43;12.77;;;3.53;;
5303;SDS011;2674;49.722;10.892;2023-07-20T06:59:08;3.63;;;2.80;;
5303;SDS011;2674;49.722;10.892;2023-07-20T07:01:34;8.13;;;3.50;;
5303;SDS011;2674;49.722;10.892;2023-07-20T07:04:00;3.60;;;2.90;;
5303;SDS011;2674;49.722;10.892;2023-07-20T07:06:26;4.07;;;2.90;;
5303;SDS011;2674;49.722;10.892;2023-07-20T07:08:52;6.60;;;2.57;;
5303;SDS011;2674;49.722;10.892;2023-07-20T07:11:18;7.60;;;2.77;;
5303;SDS011;2674;49.722;10.892;2023-07-20T07:13:45;2.13;;;2.00;;
5303;SDS011;2674;49.722;10.892;2023-07-20T07:16:12;6.73;;;2.33;;
5303;SDS011;2674;49.722;10.892;2023-07-20T07:18:39;11.43;;;2.63;;
5303;SDS011;2674;49.722;10.892;2023-07-20T07:21:05;2.73;;;2.33;;
5303;SDS011;2674;49.722;10.892;2023-07-20T07:23:31;7.97;;;2.57;;
5303;SDS011;2674;49.722;10.892;2023-07-20T07:25:57;9.50;;;2.70;;
5303;SDS011;2674;49.722;10.892;2023-07-20T07:28:22;3.70;;;2.33;;
5303;SDS011;2674;49.722;10.892;2023-07-20T07:30:48;4.60;;;2.87;;
5303;SDS011;2674;49.722;10.892;2023-07-20T07:33:14;6.20;;;2.10;;
5303;SDS011;2674;49.722;10.892;2023-07-20T07:35:40;5.83;;;2.87;;
5303;SDS011;2674;49.722;10.892;2023-07-20T07:38:06;2.85;;;2.15;;
5303;SDS011;2674;49.722;10.892;2023-07-20T07:40:32;3.80;;;2.13;;
5303;SDS011;2674;49.722;10.892;2023-07-20T07:42:58;4.43;;;2.03;;
5303;SDS011;2674;49.722;10.892;2023-07-20T07:45:23;2.33;;;1.80;;
5303;SDS011;2674;49.722;10.892;2023-07-20T07:47:49;3.23;;;2.27;;
5303;SDS011;2674;49.722;10.892;2023-07-20T07:50:15;4.90;;;2.23;;
5303;SDS011;2674;49.722;10.892;2023-07-20T07:52:41;6.73;;;2.33;;
5303;SDS011;2674;49.722;10.892;2023-07-20T07:55:07;5.57;;;2.27;;
5303;SDS011;2674;49.722;10.892;2023-07-20T07:57:32;5.87;;;2.60;;
5303;SDS011;2674;49.722;10.892;2023-07-20T07:59:58;6.67;;;2.90;;
5303;SDS011;2674;49.722;10.892;2023-07-20T08:02:24;2.50;;;2.30;;
5303;SDS011;2674;49.722;10.892;2023-07-20T08:04:50;4.50;;;2.30;;
5303;SDS011;2674;49.722;10.892;2023-07-20T08:07:17;4.90;;;2.53;;
5303;SDS011;2674;49.722;10.892;2023-07-20T08:09:43;5.77;;;2.50;;
5303;SDS011;2674;49.722;10.892;2023-07-20T08:12:08;4.50;;;2.40;;
5303;SDS011;2674;49.722;10.892;2023-07-20T08:14:34;4.27;;;2.20;;
5303;SDS011;2674;49.722;10.892;2023-07-20T08:17:00;5.80;;;2.10;;
5303;SDS011;2674;49.722;10.892;2023-07-20T08:19:26;3.73;;;2.20;;
5303;SDS011;2674;49.722;10.892;2023-07-20T08:21:52;3.63;;;1.90;;
5303;SDS011;2674;49.722;10.892;2023-07-20T08:24:18;3.10;;;2.20;;
5303;SDS011;2674;49.722;10.892;2023-07-20T08:26:44;5.30;;;2.23;;
5303;SDS011;2674;49.722;10.892;2023-07-20T08:29:10;6.57;;;2.37;;
5303;SDS011;2674;49.722;10.892;2023-07-20T08:31:35;3.90;;;1.90;;
5303;SDS011;2674;49.722;10.892;2023-07-20T08:34:01;6.37;;;2.13;;
5303;SDS011;2674;49.722;10.892;2023-07-20T08:36:28;4.00;;;2.10;;
5303;SDS011;2674;49.722;10.892;2023-07-20T08:38:54;10.23;;;2.50;;
5303;SDS011;2674;49.722;10.892;2023-07-20T08:41:20;3.23;;;1.50;;
5303;SDS011;2674;49.722;10.892;2023-07-20T08:43:46;3.93;;;1.37;;
5303;SDS011;2674;49.722;10.892;2023-07-20T08:46:12;4.83;;;2.17;;
5303;SDS011;2674;49.722;10.892;2023-07-20T08:48:40;2.37;;;1.90;;
5303;SDS011;2674;49.722;10.892;2023-07-20T08:51:09;2.87;;;2.50;;
5303;SDS011;2674;49.722;10.892;2023-07-20T08:53:37;4.50;;;1.70;;
5303;SDS011;2674;49.722;10.892;2023-07-20T08:56:04;5.53;;;1.80;;
5303;SDS011;2674;49.722;10.892;2023-07-20T08:58:30;3.80;;;2.00;;
5303;SDS011;2674;49.722;10.892;2023-07-20T09:00:56;3.63;;;2.10;;
5303;SDS011;2674;49.722;10.892;2023-07-20T09:03:24;2.40;;;1.77;;
5303;SDS011;2674;49.722;10.892;2023-07-20T09:05:50;4.10;;;2.40;;
5303;SDS011;2674;49.722;10.892;2023-07-20T09:08:16;9.20;;;2.23;;
5303;SDS011;2674;49.722;10.892;2023-07-20T09:10:42;6.63;;;1.87;;
5303;SDS011;2674;49.722;10.892;2023-07-20T09:13:08;12.43;;;2.03;;
5303;SDS011;2674;49.722;10.892;2023-07-20T09:15:34;9.80;;;1.70;;
5303;SDS011;2674;49.722;10.892;2023-07-20T09:18:01;3.50;;;1.70;;
5303;SDS011;2674;49.722;10.892;2023-07-20T09:20:28;2.53;;;1.67;;
5303;SDS011;2674;49.722;10.892;2023-07-20T09:22:57;1.63;;;1.53;;
5303;SDS011;2674;49.722;10.892;2023-07-20T09:25:22;6.93;;;1.90;;
5303;SDS011;2674;49.722;10.892;2023-07-20T09:27:49;3.13;;;1.63;;
5303;SDS011;2674;49.722;10.892;2023-07-20T09:30:15;2.40;;;1.73;;
5303;SDS011;2674;49.722;10.892;2023-07-20T09:32:48;4.10;;;1.53;;
5303;SDS011;2674;49.722;10.892;2023-07-20T09:35:16;3.77;;;1.87;;
5303;SDS011;2674;49.722;10.892;2023-07-20T09:40:28;5.30;;;1.70;;
5303;SDS011;2674;49.722;10.892;2023-07-20T09:42:54;6.23;;;2.00;;
5303;SDS011;2674;49.722;10.892;2023-07-20T09:45:34;5.33;;;2.00;;
5303;SDS011;2674;49.722;10.892;2023-07-20T09:48:07;3.70;;;1.57;;
5303;SDS011;2674;49.722;10.892;2023-07-20T09:50:34;5.37;;;1.87;;
5303;SDS011;2674;49.722;10.892;2023-07-20T09:53:06;7.23;;;1.83;;
5303;SDS011;2674;49.722;10.892;2023-07-20T09:55:36;1.87;;;1.73;;
5303;SDS011;2674;49.722;10.892;2023-07-20T09:58:03;2.50;;;1.73;;
5303;SDS011;2674;49.722;10.892;2023-07-20T10:00:32;2.60;;;1.57;;
5303;SDS011;2674;49.722;10.892;2023-07-20T10:03:00;5.70;;;1.40;;
5303;SDS011;2674;49.722;10.892;2023-07-20T10:05:29;1.60;;;1.50;;
5303;SDS011;2674;49.722;10.892;2023-07-20T10:08:02;2.13;;;1.60;;
5303;SDS011;2674;49.722;10.892;2023-07-20T10:10:33;3.33;;;1.37;;
5303;SDS011;2674;49.722;10.892;2023-07-20T10:13:00;3.87;;;1.33;;
5303;SDS011;2674;49.722;10.892;2023-07-20T10:15:36;2.33;;;1.50;;
5303;SDS011;2674;49.722;10.892;2023-07-20T10:18:17;4.10;;;1.67;;
5303;SDS011;2674;49.722;10.892;2023-07-20T10:20:48;2.20;;;1.60;;
5303;SDS011;2674;49.722;10.892;2023-07-20T10:23:16;3.83;;;1.73;;
5303;SDS011;2674;49.722;10.892;2023-07-20T10:25:45;2.57;;;1.40;;
5303;SDS011;2674;49.722;10.892;2023-07-20T10:28:12;1.40;;;1.30;;
5303;SDS011;2674;49.722;10.892;2023-07-20T10:30:39;2.97;;;1.80;;
5303;SDS011;2674;49.722;10.892;2023-07-20T10:33:06;2.43;;;1.33;;
5303;SDS011;2674;49.722;10.892;2023-07-20T10:35:54;5.37;;;1.47;;
5303;SDS011;2674;49.722;10.892;2023-07-20T10:38:52;9.30;;;2.10;;
5303;SDS011;2674;49.722;10.892;2023-07-20T10:43:47;3.40;;;2.03;;
5303;SDS011;2674;49.722;10.892;2023-07-20T10:46:14;1.60;;;1.40;;
5303;SDS011;2674;49.722;10.892;2023-07-20T10:48:59;2.50;;;1.70;;
5303;SDS011;2674;49.722;10.892;2023-07-20T10:51:27;3.57;;;1.60;;
5303;SDS011;2674;49.722;10.892;2023-07-20T10:53:54;2.40;;;2.07;;
5303;SDS011;2674;49.722;10.892;2023-07-20T10:56:22;9.27;;;1.43;;
5303;SDS011;2674;49.722;10.892;2023-07-20T10:58:54;4.97;;;2.13;;
5303;SDS011;2674;49.722;10.892;2023-07-20T11:01:27;4.00;;;1.20;;
5303;SDS011;2674;49.722;10.892;2023-07-20T11:03:57;1.67;;;1.40;;
5303;SDS011;2674;49.722;10.892;2023-07-20T11:08:57;3.60;;;1.63;;
5303;SDS011;2674;49.722;10.892;2023-07-20T11:11:41;5.13;;;1.20;;
5303;SDS011;2674;49.722;10.892;2023-07-20T11:14:09;2.20;;;1.87;;
5303;SDS011;2674;49.722;10.892;2023-07-20T11:16:45;2.90;;;1.40;;
5303;SDS011;2674;49.722;10.892;2023-07-20T11:21:51;3.33;;;1.80;;
5303;SDS011;2674;49.722;10.892;2023-07-20T11:24:18;1.77;;;1.40;;
5303;SDS011;2674;49.722;10.892;2023-07-20T11:26:48;3.23;;;1.37;;
5303;SDS011;2674;49.722;10.892;2023-07-20T11:29:19;1.73;;;1.30;;
5303;SDS011;2674;49.722;10.892;2023-07-20T11:31:46;2.20;;;1.57;;
5303;SDS011;2674;49.722;10.892;2023-07-20T11:34:13;3.47;;;1.43;;
5303;SDS011;2674;49.722;10.892;2023-07-20T11:36:41;4.03;;;2.37;;
5303;SDS011;2674;49.722;10.892;2023-07-20T11:39:12;1.90;;;1.30;;
5303;SDS011;2674;49.722;10.892;2023-07-20T11:41:43;2.40;;;1.40;;
5303;SDS011;2674;49.722;10.892;2023-07-20T11:44:11;2.40;;;1.57;;
5303;SDS011;2674;49.722;10.892;2023-07-20T11:46:41;5.27;;;1.47;;
5303;SDS011;2674;49.722;10.892;2023-07-20T11:49:07;3.27;;;1.60;;
5303;SDS011;2674;49.722;10.892;2023-07-20T11:51:34;5.70;;;1.90;;
5303;SDS011;2674;49.722;10.892;2023-07-20T11:54:01;2.53;;;1.67;;
5303;SDS011;2674;49.722;10.892;2023-07-20T11:56:27;2.87;;;2.00;;
5303;SDS011;2674;49.722;10.892;2023-07-20T11:58:57;3.27;;;1.80;;
5303;SDS011;2674;49.722;10.892;2023-07-20T12:01:28;3.07;;;1.47;;
5303;SDS011;2674;49.722;10.892;2023-07-20T12:03:57;11.93;;;1.83;;
5303;SDS011;2674;49.722;10.892;2023-07-20T12:06:29;2.90;;;1.40;;
5303;SDS011;2674;49.722;10.892;2023-07-20T12:08:56;2.20;;;1.40;;
5303;SDS011;2674;49.722;10.892;2023-07-20T12:11:30;7.80;;;1.80;;
5303;SDS011;2674;49.722;10.892;2023-07-20T12:13:59;2.87;;;1.60;;
5303;SDS011;2674;49.722;10.892;2023-07-20T12:16:26;5.00;;;1.60;;
5303;SDS011;2674;49.722;10.892;2023-07-20T12:19:00;2.37;;;1.40;;
5303;SDS011;2674;49.722;10.892;2023-07-20T12:21:26;1.80;;;1.60;;
5303;SDS011;2674;49.722;10.892;2023-07-20T12:23:52;2.20;;;1.30;;
5303;SDS011;2674;49.722;10.892;2023-07-20T12:26:18;3.33;;;2.00;;
5303;SDS011;2674;49.722;10.892;2023-07-20T12:28:47;6.57;;;1.30;;
5303;SDS011;2674;49.722;10.892;2023-07-20T12:31:14;1.53;;;1.43;;
5303;SDS011;2674;49.722;10.892;2023-07-20T12:33:40;2.80;;;1.20;;
5303;SDS011;2674;49.722;10.892;2023-07-20T12:36:06;3.13;;;1.77;;
5303;SDS011;2674;49.722;10.892;2023-07-20T12:38:32;4.43;;;1.53;;
5303;SDS011;2674;49.722;10.892;2023-07-20T12:40:59;2.83;;;1.40;;
5303;SDS011;2674;49.722;10.892;2023-07-20T12:43:27;1.50;;;1.40;;
5303;SDS011;2674;49.722;10.892;2023-07-20T12:45:54;2.57;;;1.40;;
5303;SDS011;2674;49.722;10.892;2023-07-20T12:48:20;2.10;;;1.90;;
5303;SDS011;2674;49.722;10.892;2023-07-20T12:50:47;2.30;;;1.50;;
5303;SDS011;2674;49.722;10.892;2023-07-20T12:53:12;1.70;;;1.20;;
5303;SDS011;2674;49.722;10.892;2023-07-20T12:55:39;5.40;;;1.50;;
5303;SDS011;2674;49.722;10.892;2023-07-20T12:58:06;2.00;;;1.63;;
5303;SDS011;2674;49.722;10.892;2023-07-20T13:00:33;1.60;;;1.50;;
5303;SDS011;2674;49.722;10.892;2023-07-20T13:02:59;1.53;;;1.43;;
5303;SDS011;2674;49.722;10.892;2023-07-20T13:05:25;2.33;;;1.57;;
5303;SDS011;2674;49.722;10.892;2023-07-20T13:07:51;1.87;;;1.50;;
5303;SDS011;2674;49.722;10.892;2023-07-20T13:10:17;2.53;;;1.50;;
5303;SDS011;2674;49.722;10.892;2023-07-20T13:12:43;2.10;;;1.40;;
5303;SDS011;2674;49.722;10.892;2023-07-20T13:15:10;7.53;;;1.97;;
5303;SDS011;2674;49.722;10.892;2023-07-20T13:17:36;1.93;;;1.60;;
5303;SDS011;2674;49.722;10.892;2023-07-20T13:20:06;2.70;;;1.50;;
5303;SDS011;2674;49.722;10.892;2023-07-20T13:22:37;6.50;;;1.50;;
5303;SDS011;2674;49.722;10.892;2023-07-20T13:25:03;1.70;;;1.10;;
5303;SDS011;2674;49.722;10.892;2023-07-20T13:27:30;1.30;;;1.20;;
5303;SDS011;2674;49.722;10.892;2023-07-20T13:29:56;1.73;;;1.40;;
5303;SDS011;2674;49.722;10.892;2023-07-20T13:32:23;3.37;;;1.80;;
5303;SDS011;2674;49.722;10.892;2023-07-20T13:34:49;2.50;;;1.97;;
5303;SDS011;2674;49.722;10.892;2023-07-20T13:37:15;6.17;;;1.43;;
5303;SDS011;2674;49.722;10.892;2023-07-20T13:39:44;2.10;;;1.60;;
5303;SDS011;2674;49.722;10.892;2023-07-20T13:42:10;10.30;;;1.50;;
5303;SDS011;2674;49.722;10.892;2023-07-20T13:44:37;1.60;;;1.43;;
5303;SDS011;2674;49.722;10.892;2023-07-20T13:47:04;3.30;;;1.50;;
5303;SDS011;2674;49.722;10.892;2023-07-20T13:49:33;1.93;;;1.40;;
5303;SDS011;2674;49.722;10.892;2023-07-20T13:51:59;1.87;;;1.67;;
5303;SDS011;2674;49.722;10.892;2023-07-20T13:54:24;5.80;;;2.53;;
5303;SDS011;2674;49.722;10.892;2023-07-20T13:56:50;2.53;;;1.60;;
5303;SDS011;2674;49.722;10.892;2023-07-20T13:59:17;2.53;;;1.77;;
5303;SDS011;2674;49.722;10.892;2023-07-20T14:01:43;3.60;;;1.43;;
5303;SDS011;2674;49.722;10.892;2023-07-20T14:04:09;2.40;;;1.50;;
5303;SDS011;2674;49.722;10.892;2023-07-20T14:06:35;5.77;;;1.30;;
5303;SDS011;2674;49.722;10.892;2023-07-20T14:09:01;3.00;;;1.50;;
5303;SDS011;2674;49.722;10.892;2023-07-20T14:11:28;4.43;;;1.30;;
5303;SDS011;2674;49.722;10.892;2023-07-20T14:13:54;8.00;;;1.50;;
5303;SDS011;2674;49.722;10.892;2023-07-20T14:16:20;2.30;;;1.47;;
5303;SDS011;2674;49.722;10.892;2023-07-20T14:18:47;1.77;;;1.00;;
5303;SDS011;2674;49.722;10.892;2023-07-20T14:21:14;4.60;;;1.80;;
5303;SDS011;2674;49.722;10.892;2023-07-20T14:23:46;2.10;;;1.37;;
5303;SDS011;2674;49.722;10.892;2023-07-20T14:26:14;4.50;;;1.50;;
5303;SDS011;2674;49.722;10.892;2023-07-20T14:28:40;1.27;;;1.20;;
5303;SDS011;2674;49.722;10.892;2023-07-20T14:31:07;4.27;;;1.43;;
5303;SDS011;2674;49.722;10.892;2023-07-20T14:33:33;2.20;;;1.30;;
5303;SDS011;2674;49.722;10.892;2023-07-20T14:35:59;2.63;;;1.27;;
5303;SDS011;2674;49.722;10.892;2023-07-20T14:38:26;5.47;;;1.57;;
5303;SDS011;2674;49.722;10.892;2023-07-20T14:40:53;4.47;;;1.80;;
5303;SDS011;2674;49.722;10.892;2023-07-20T14:43:20;2.60;;;1.30;;
5303;SDS011;2674;49.722;10.892;2023-07-20T14:45:46;2.47;;;1.47;;
5303;SDS011;2674;49.722;10.892;2023-07-20T14:48:12;1.67;;;1.57;;
5303;SDS011;2674;49.722;10.892;2023-07-20T14:50:37;8.60;;;1.50;;
5303;SDS011;2674;49.722;10.892;2023-07-20T14:53:03;1.63;;;1.53;;
5303;SDS011;2674;49.722;10.892;2023-07-20T14:55:29;1.50;;;1.40;;
5303;SDS011;2674;49.722;10.892;2023-07-20T14:57:55;2.53;;;1.07;;
5303;SDS011;2674;49.722;10.892;2023-07-20T15:00:21;4.73;;;1.63;;
5303;SDS011;2674;49.722;10.892;2023-07-20T15:02:47;1.50;;;1.40;;
5303;SDS011;2674;49.722;10.892;2023-07-20T15:05:17;2.77;;;1.27;;
5303;SDS011;2674;49.722;10.892;2023-07-20T15:07:46;1.90;;;1.50;;
5303;SDS011;2674;49.722;10.892;2023-07-20T15:10:12;2.00;;;1.80;;
5303;SDS011;2674;49.722;10.892;2023-07-20T15:12:38;4.50;;;1.33;;
5303;SDS011;2674;49.722;10.892;2023-07-20T15:17:35;1.73;;;1.53;;
5303;SDS011;2674;49.722;10.892;2023-07-20T15:20:03;3.27;;;1.50;;
5303;SDS011;2674;49.722;10.892;2023-07-20T15:22:30;2.70;;;1.60;;
5303;SDS011;2674;49.722;10.892;2023-07-20T15:24:56;1.70;;;1.37;;